sensor_id;sensor_type;location;lat;lon;timestamp;pressure;altitude;pressure_sealevel;temperature;humidity
71770;BME280;66386;52.122;5.420;2023-05-27T00:01:01;103130.63;;;9.87;69.08
71770;BME280;66386;52.122;5.420;2023-05-27T00:03:28;103129.75;;;9.82;69.63
71770;BME280;66386;52.122;5.420;2023-05-27T00:05:55;103136.59;;;9.79;69.51
71770;BME280;66386;52.122;5.420;2023-05-27T00:08:21;103144.28;;;9.76;69.81
71770;BME280;66386;52.122;5.420;2023-05-27T00:10:48;103134.84;;;9.71;69.96
71770;BME280;66386;52.122;5.420;2023-05-27T00:13:14;103134.00;;;9.72;70.22
71770;BME280;66386;52.122;5.420;2023-05-27T00:15:41;103135.69;;;9.65;69.93
71770;BME280;66386;52.122;5.420;2023-05-27T00:18:07;103139.94;;;9.61;70.12
71770;BME280;66386;52.122;5.420;2023-05-27T00:20:35;103137.38;;;9.60;70.42
71770;BME280;66386;52.122;5.420;2023-05-27T00:23:01;103134.78;;;9.55;70.37
71770;BME280;66386;52.122;5.420;2023-05-27T00:25:28;103129.66;;;9.54;70.55
71770;BME280;66386;52.122;5.420;2023-05-27T00:27:55;103126.19;;;9.52;70.55
71770;BME280;66386;52.122;5.420;2023-05-27T00:30:22;103126.19;;;9.46;71.01
71770;BME280;66386;52.122;5.420;2023-05-27T00:32:48;103127.00;;;9.41;71.07
71770;BME280;66386;52.122;5.420;2023-05-27T00:35:15;103130.44;;;9.40;71.04
71770;BME280;66386;52.122;5.420;2023-05-27T00:37:42;103119.31;;;9.38;71.36
71770;BME280;66386;52.122;5.420;2023-05-27T00:40:10;103122.69;;;9.36;71.37
71770;BME280;66386;52.122;5.420;2023-05-27T00:42:37;103115.00;;;9.34;71.42
71770;BME280;66386;52.122;5.420;2023-05-27T00:45:04;103116.69;;;9.29;71.54
71770;BME280;66386;52.122;5.420;2023-05-27T00:47:32;103110.69;;;9.25;71.72
71770;BME280;66386;52.122;5.420;2023-05-27T00:50:00;103116.66;;;9.21;71.98
71770;BME280;66386;52.122;5.420;2023-05-27T00:52:27;103110.63;;;9.12;72.13
71770;BME280;66386;52.122;5.420;2023-05-27T00:54:53;103108.06;;;9.12;72.29
71770;BME280;66386;52.122;5.420;2023-05-27T00:57:22;103108.03;;;9.08;72.23
71770;BME280;66386;52.122;5.420;2023-05-27T00:59:49;103104.59;;;9.06;72.54
71770;BME280;66386;52.122;5.420;2023-05-27T01:02:15;103096.03;;;9.03;72.49
71770;BME280;66386;52.122;5.420;2023-05-27T01:04:42;103096.84;;;9.00;72.80
71770;BME280;66386;52.122;5.420;2023-05-27T01:07:22;103093.44;;;8.98;72.95
71770;BME280;66386;52.122;5.420;2023-05-27T01:09:58;103100.22;;;8.90;73.05
71770;BME280;66386;52.122;5.420;2023-05-27T01:15:14;103103.56;;;8.81;73.33
71770;BME280;66386;52.122;5.420;2023-05-27T01:17:42;103099.25;;;8.77;73.92
71770;BME280;66386;52.122;5.420;2023-05-27T01:20:12;103101.81;;;8.74;73.98
71770;BME280;66386;52.122;5.420;2023-05-27T01:22:43;103094.09;;;8.71;73.94
71770;BME280;66386;52.122;5.420;2023-05-27T01:25:09;103096.66;;;8.71;74.02
71770;BME280;66386;52.122;5.420;2023-05-27T01:27:36;103103.50;;;8.70;74.02
71770;BME280;66386;52.122;5.420;2023-05-27T01:30:07;103096.63;;;8.66;74.18
71770;BME280;66386;52.122;5.420;2023-05-27T01:35:16;103097.47;;;8.64;74.73
71770;BME280;66386;52.122;5.420;2023-05-27T01:37:45;103099.16;;;8.62;74.63
71770;BME280;66386;52.122;5.420;2023-05-27T01:40:13;103097.44;;;8.59;74.72
71770;BME280;66386;52.122;5.420;2023-05-27T01:42:41;103102.56;;;8.58;74.60
71770;BME280;66386;52.122;5.420;2023-05-27T01:45:10;103096.50;;;8.52;75.05
71770;BME280;66386;52.122;5.420;2023-05-27T01:47:37;103100.78;;;8.49;74.86
71770;BME280;66386;52.122;5.420;2023-05-27T01:50:05;103088.72;;;8.42;75.36
71770;BME280;66386;52.122;5.420;2023-05-27T01:52:32;103087.81;;;8.39;75.41
71770;BME280;66386;52.122;5.420;2023-05-27T01:54:58;103093.81;;;8.38;75.54
71770;BME280;66386;52.122;5.420;2023-05-27T01:57:25;103103.16;;;8.35;75.90
71770;BME280;66386;52.122;5.420;2023-05-27T01:59:52;103099.72;;;8.30;75.89
71770;BME280;66386;52.122;5.420;2023-05-27T02:02:18;103098.00;;;8.29;76.02
71770;BME280;66386;52.122;5.420;2023-05-27T02:04:45;103104.78;;;8.24;76.27
71770;BME280;66386;52.122;5.420;2023-05-27T02:07:12;103103.91;;;8.21;76.46
71770;BME280;66386;52.122;5.420;2023-05-27T02:09:38;103112.47;;;8.22;76.48
71770;BME280;66386;52.122;5.420;2023-05-27T02:12:05;103109.84;;;8.19;76.54
71770;BME280;66386;52.122;5.420;2023-05-27T02:14:32;103111.53;;;8.17;76.75
71770;BME280;66386;52.122;5.420;2023-05-27T02:16:59;103111.53;;;8.14;76.59
71770;BME280;66386;52.122;5.420;2023-05-27T02:19:26;103112.38;;;8.14;76.90
71770;BME280;66386;52.122;5.420;2023-05-27T02:21:52;103103.81;;;8.12;76.97
71770;BME280;66386;52.122;5.420;2023-05-27T02:24:18;103102.94;;;8.10;77.09
71770;BME280;66386;52.122;5.420;2023-05-27T02:26:45;103102.09;;;8.10;77.09
71770;BME280;66386;52.122;5.420;2023-05-27T02:29:11;103102.06;;;8.08;77.02
71770;BME280;66386;52.122;5.420;2023-05-27T02:31:38;103101.22;;;8.06;77.55
71770;BME280;66386;52.122;5.420;2023-05-27T02:34:04;103089.22;;;8.03;77.39
71770;BME280;66386;52.122;5.420;2023-05-27T02:36:31;103084.91;;;7.98;77.49
71770;BME280;66386;52.122;5.420;2023-05-27T02:38:57;103088.28;;;7.95;77.63
71770;BME280;66386;52.122;5.420;2023-05-27T02:41:24;103082.28;;;7.92;77.62
71770;BME280;66386;52.122;5.420;2023-05-27T02:43:51;103084.72;;;7.84;78.01
71770;BME280;66386;52.122;5.420;2023-05-27T02:46:17;103082.16;;;7.81;77.89
71770;BME280;66386;52.122;5.420;2023-05-27T02:48:44;103086.38;;;7.77;78.22
71770;BME280;66386;52.122;5.420;2023-05-27T02:51:10;103088.91;;;7.74;78.42
71770;BME280;66386;52.122;5.420;2023-05-27T02:53:37;103090.59;;;7.74;78.52
71770;BME280;66386;52.122;5.420;2023-05-27T02:56:04;103094.84;;;7.70;78.67
71770;BME280;66386;52.122;5.420;2023-05-27T02:58:30;103084.56;;;7.67;78.73
71770;BME280;66386;52.122;5.420;2023-05-27T03:00:58;103080.28;;;7.66;78.96
71770;BME280;66386;52.122;5.420;2023-05-27T03:03:24;103089.66;;;7.65;78.84
71770;BME280;66386;52.122;5.420;2023-05-27T03:05:51;103096.44;;;7.63;78.91
71770;BME280;66386;52.122;5.420;2023-05-27T03:08:18;103094.75;;;7.61;78.86
71770;BME280;66386;52.122;5.420;2023-05-27T03:10:44;103098.94;;;7.57;78.95
71770;BME280;66386;52.122;5.420;2023-05-27T03:13:11;103098.06;;;7.55;79.03
71770;BME280;66386;52.122;5.420;2023-05-27T03:15:38;103100.63;;;7.54;79.37
71770;BME280;66386;52.122;5.420;2023-05-27T03:18:04;103095.53;;;7.55;79.38
71770;BME280;66386;52.122;5.420;2023-05-27T03:20:31;103099.75;;;7.53;79.45
71770;BME280;66386;52.122;5.420;2023-05-27T03:22:58;103098.88;;;7.51;79.44
71770;BME280;66386;52.122;5.420;2023-05-27T03:25:24;103100.59;;;7.50;79.46
71770;BME280;66386;52.122;5.420;2023-05-27T03:27:51;103104.81;;;7.50;79.52
71770;BME280;66386;52.122;5.420;2023-05-27T03:30:19;103101.38;;;7.45;79.47
71770;BME280;66386;52.122;5.420;2023-05-27T03:32:46;103094.50;;;7.42;79.85
71770;BME280;66386;52.122;5.420;2023-05-27T03:35:12;103092.78;;;7.43;79.79
71770;BME280;66386;52.122;5.420;2023-05-27T03:37:39;103085.97;;;7.42;80.07
71770;BME280;66386;52.122;5.420;2023-05-27T03:40:06;103087.63;;;7.40;79.89
71770;BME280;66386;52.122;5.420;2023-05-27T03:42:33;103086.81;;;7.41;80.04
71770;BME280;66386;52.122;5.420;2023-05-27T03:44:59;103091.03;;;7.39;80.04
71770;BME280;66386;52.122;5.420;2023-05-27T03:47:26;103085.91;;;7.39;80.15
71770;BME280;66386;52.122;5.420;2023-05-27T03:49:52;103085.91;;;7.37;80.18
71770;BME280;66386;52.122;5.420;2023-05-27T03:52:19;103088.44;;;7.36;80.44
71770;BME280;66386;52.122;5.420;2023-05-27T03:54:45;103080.75;;;7.36;80.59
71770;BME280;66386;52.122;5.420;2023-05-27T03:57:12;103076.50;;;7.34;80.69
71770;BME280;66386;52.122;5.420;2023-05-27T03:59:38;103072.22;;;7.35;80.65
71770;BME280;66386;52.122;5.420;2023-05-27T04:02:05;103068.88;;;7.38;80.42
71770;BME280;66386;52.122;5.420;2023-05-27T04:04:32;103072.25;;;7.37;80.74
71770;BME280;66386;52.122;5.420;2023-05-27T04:06:58;103076.53;;;7.38;80.62
71770;BME280;66386;52.122;5.420;2023-05-27T04:09:25;103076.53;;;7.36;80.62
71770;BME280;66386;52.122;5.420;2023-05-27T04:11:51;103073.13;;;7.39;80.65
71770;BME280;66386;52.122;5.420;2023-05-27T04:14:18;103074.81;;;7.38;80.66
71770;BME280;66386;52.122;5.420;2023-05-27T04:16:44;103076.50;;;7.34;80.99
71770;BME280;66386;52.122;5.420;2023-05-27T04:19:11;103067.97;;;7.37;80.96
71770;BME280;66386;52.122;5.420;2023-05-27T04:21:37;103067.16;;;7.38;81.14
71770;BME280;66386;52.122;5.420;2023-05-27T04:24:04;103074.00;;;7.41;80.92
71770;BME280;66386;52.122;5.420;2023-05-27T04:26:31;103062.91;;;7.40;81.18
71770;BME280;66386;52.122;5.420;2023-05-27T04:28:59;103071.50;;;7.44;81.09
71770;BME280;66386;52.122;5.420;2023-05-27T04:31:26;103068.13;;;7.46;81.08
71770;BME280;66386;52.122;5.420;2023-05-27T04:33:55;103068.16;;;7.49;80.88
71770;BME280;66386;52.122;5.420;2023-05-27T04:36:22;103066.47;;;7.51;80.75
71770;BME280;66386;52.122;5.420;2023-05-27T04:38:51;103058.81;;;7.56;81.09
71770;BME280;66386;52.122;5.420;2023-05-27T04:41:18;103055.47;;;7.60;81.25
71770;BME280;66386;52.122;5.420;2023-05-27T04:43:46;103070.00;;;7.63;81.06
71770;BME280;66386;52.122;5.420;2023-05-27T04:46:14;103063.22;;;7.68;81.32
71770;BME280;66386;52.122;5.420;2023-05-27T04:48:41;103064.97;;;7.71;81.10
71770;BME280;66386;52.122;5.420;2023-05-27T04:51:10;103055.59;;;7.71;81.23
71770;BME280;66386;52.122;5.420;2023-05-27T04:53:37;103058.22;;;7.77;81.16
71770;BME280;66386;52.122;5.420;2023-05-27T04:56:04;103057.44;;;7.84;81.38
71770;BME280;66386;52.122;5.420;2023-05-27T04:58:31;103054.06;;;7.87;81.19
71770;BME280;66386;52.122;5.420;2023-05-27T05:00:59;103050.66;;;7.88;81.27
71770;BME280;66386;52.122;5.420;2023-05-27T05:03:26;103047.28;;;7.94;81.14
71770;BME280;66386;52.122;5.420;2023-05-27T05:06:03;103043.91;;;7.98;81.07
71770;BME280;66386;52.122;5.420;2023-05-27T05:08:30;103047.38;;;8.03;81.16
71770;BME280;66386;52.122;5.420;2023-05-27T05:10:57;103050.84;;;8.10;81.21
71770;BME280;66386;52.122;5.420;2023-05-27T05:13:24;103050.88;;;8.13;81.04
71770;BME280;66386;52.122;5.420;2023-05-27T05:15:55;103050.91;;;8.17;81.14
71770;BME280;66386;52.122;5.420;2023-05-27T05:18:22;103058.63;;;8.20;80.88
71770;BME280;66386;52.122;5.420;2023-05-27T05:20:49;103053.59;;;8.27;80.92
71770;BME280;66386;52.122;5.420;2023-05-27T05:23:16;103056.19;;;8.34;80.77
71770;BME280;66386;52.122;5.420;2023-05-27T05:25:43;103057.06;;;8.39;80.93
71770;BME280;66386;52.122;5.420;2023-05-27T05:28:09;103053.75;;;8.47;80.61
71770;BME280;66386;52.122;5.420;2023-05-27T05:30:36;103040.09;;;8.48;80.55
71770;BME280;66386;52.122;5.420;2023-05-27T05:33:02;103044.44;;;8.55;80.64
71770;BME280;66386;52.122;5.420;2023-05-27T05:35:29;103041.06;;;8.61;80.51
71770;BME280;66386;52.122;5.420;2023-05-27T05:37:56;103041.97;;;8.70;80.61
71770;BME280;66386;52.122;5.420;2023-05-27T05:40:23;103039.44;;;8.73;80.49
71770;BME280;66386;52.122;5.420;2023-05-27T05:42:50;103027.50;;;8.80;80.24
71770;BME280;66386;52.122;5.420;2023-05-27T05:45:16;103035.25;;;8.89;80.18
71770;BME280;66386;52.122;5.420;2023-05-27T05:47:43;103032.72;;;8.96;79.96
71770;BME280;66386;52.122;5.420;2023-05-27T05:50:09;103031.06;;;9.02;79.82
71770;BME280;66386;52.122;5.420;2023-05-27T05:52:36;103036.22;;;9.13;79.75
71770;BME280;66386;52.122;5.420;2023-05-27T05:55:02;103041.38;;;9.24;79.76
71770;BME280;66386;52.122;5.420;2023-05-27T05:57:29;103039.72;;;9.34;79.44
71770;BME280;66386;52.122;5.420;2023-05-27T06:00:01;103032.03;;;9.40;79.59
71770;BME280;66386;52.122;5.420;2023-05-27T06:02:27;103031.22;;;9.49;79.38
71770;BME280;66386;52.122;5.420;2023-05-27T06:04:54;103029.53;;;9.60;79.30
71770;BME280;66386;52.122;5.420;2023-05-27T06:07:20;103032.13;;;9.68;78.91
71770;BME280;66386;52.122;5.420;2023-05-27T06:09:47;103027.88;;;9.81;79.11
71770;BME280;66386;52.122;5.420;2023-05-27T06:12:14;103024.50;;;10.39;78.03
71770;BME280;66386;52.122;5.420;2023-05-27T06:14:41;103018.56;;;12.15;74.03
71770;BME280;66386;52.122;5.420;2023-05-27T06:17:07;103009.47;;;13.41;68.80
71770;BME280;66386;52.122;5.420;2023-05-27T06:19:34;103012.97;;;14.45;64.57
71770;BME280;66386;52.122;5.420;2023-05-27T06:22:00;103005.19;;;14.92;62.75
71770;BME280;66386;52.122;5.420;2023-05-27T06:24:27;102997.41;;;15.34;61.46
71770;BME280;66386;52.122;5.420;2023-05-27T06:26:53;102993.16;;;15.69;59.58
71770;BME280;66386;52.122;5.420;2023-05-27T06:29:19;102993.81;;;15.79;59.34
71770;BME280;66386;52.122;5.420;2023-05-27T06:31:46;102987.50;;;15.89;58.03
71770;BME280;66386;52.122;5.420;2023-05-27T06:34:17;102987.75;;;15.77;58.38
71770;BME280;66386;52.122;5.420;2023-05-27T06:36:44;102989.78;;;16.01;57.97
71770;BME280;66386;52.122;5.420;2023-05-27T06:39:15;102984.84;;;15.92;58.40
71770;BME280;66386;52.122;5.420;2023-05-27T06:41:42;102983.38;;;16.15;58.03
71770;BME280;66386;52.122;5.420;2023-05-27T06:44:09;102981.91;;;16.39;56.82
71770;BME280;66386;52.122;5.420;2023-05-27T06:46:35;102981.91;;;16.39;57.35
71770;BME280;66386;52.122;5.420;2023-05-27T06:49:02;102982.28;;;16.23;57.22
71770;BME280;66386;52.122;5.420;2023-05-27T06:51:29;102984.94;;;16.22;57.26
71770;BME280;66386;52.122;5.420;2023-05-27T06:53:55;102974.97;;;16.07;58.28
71770;BME280;66386;52.122;5.420;2023-05-27T06:56:22;102975.06;;;16.03;58.07
71770;BME280;66386;52.122;5.420;2023-05-27T06:58:49;102973.84;;;15.82;58.05
71770;BME280;66386;52.122;5.420;2023-05-27T07:01:16;102968.13;;;15.66;60.26
71770;BME280;66386;52.122;5.420;2023-05-27T07:03:42;102966.16;;;15.78;58.76
71770;BME280;66386;52.122;5.420;2023-05-27T07:06:09;102961.41;;;15.59;59.59
71770;BME280;66386;52.122;5.420;2023-05-27T07:08:35;102964.25;;;15.48;59.28
71770;BME280;66386;52.122;5.420;2023-05-27T07:11:02;102956.72;;;15.39;59.61
71770;BME280;66386;52.122;5.420;2023-05-27T07:13:28;102956.72;;;15.39;60.94
71770;BME280;66386;52.122;5.420;2023-05-27T07:15:58;102953.22;;;15.76;59.91
71770;BME280;66386;52.122;5.420;2023-05-27T07:18:24;102951.53;;;16.10;59.39
71770;BME280;66386;52.122;5.420;2023-05-27T07:20:51;102958.19;;;16.20;58.74
71770;BME280;66386;52.122;5.420;2023-05-27T07:23:18;102953.59;;;16.30;58.18
71770;BME280;66386;52.122;5.420;2023-05-27T07:25:44;102951.72;;;16.35;57.10
71770;BME280;66386;52.122;5.420;2023-05-27T07:28:11;102954.41;;;16.32;57.16
71770;BME280;66386;52.122;5.420;2023-05-27T07:30:37;102948.94;;;16.41;57.58
71770;BME280;66386;52.122;5.420;2023-05-27T07:33:04;102953.69;;;16.58;56.22
71770;BME280;66386;52.122;5.420;2023-05-27T07:35:30;102953.44;;;16.66;56.23
71770;BME280;66386;52.122;5.420;2023-05-27T07:37:57;102943.84;;;16.69;56.72
71770;BME280;66386;52.122;5.420;2023-05-27T07:40:23;102945.03;;;16.89;55.55
71770;BME280;66386;52.122;5.420;2023-05-27T07:42:50;102947.38;;;16.98;55.63
71770;BME280;66386;52.122;5.420;2023-05-27T07:45:17;102946.88;;;17.14;55.46
71770;BME280;66386;52.122;5.420;2023-05-27T07:47:43;102947.94;;;17.36;54.10
71770;BME280;66386;52.122;5.420;2023-05-27T07:50:10;102938.72;;;17.53;54.10
71770;BME280;66386;52.122;5.420;2023-05-27T07:52:36;102940.00;;;17.66;52.95
71770;BME280;66386;52.122;5.420;2023-05-27T07:55:03;102929.84;;;17.85;52.07
71770;BME280;66386;52.122;5.420;2023-05-27T07:57:31;102927.81;;;17.95;52.85
71770;BME280;66386;52.122;5.420;2023-05-27T07:59:57;102924.34;;;18.20;51.06
71770;BME280;66386;52.122;5.420;2023-05-27T08:02:24;102923.97;;;18.05;52.27
71770;BME280;66386;52.122;5.420;2023-05-27T08:04:51;102918.84;;;18.27;51.69
71770;BME280;66386;52.122;5.420;2023-05-27T08:07:18;102921.50;;;18.26;52.45
71770;BME280;66386;52.122;5.420;2023-05-27T08:09:45;102910.09;;;18.54;51.32
71770;BME280;66386;52.122;5.420;2023-05-27T08:12:11;102903.88;;;18.80;51.92
71770;BME280;66386;52.122;5.420;2023-05-27T08:14:39;102905.81;;;18.98;50.10
71770;BME280;66386;52.122;5.420;2023-05-27T08:17:06;102896.56;;;19.34;47.93
71770;BME280;66386;52.122;5.420;2023-05-27T08:19:33;102896.47;;;19.15;49.25
71770;BME280;66386;52.122;5.420;2023-05-27T08:21:59;102886.50;;;19.02;49.32
71770;BME280;66386;52.122;5.420;2023-05-27T08:24:30;102878.91;;;18.52;50.10
71770;BME280;66386;52.122;5.420;2023-05-27T08:26:58;102877.66;;;18.15;50.89
71770;BME280;66386;52.122;5.420;2023-05-27T08:29:25;102876.34;;;18.03;51.79
71770;BME280;66386;52.122;5.420;2023-05-27T08:31:53;102888.47;;;18.28;50.97
71770;BME280;66386;52.122;5.420;2023-05-27T08:34:20;102880.88;;;18.69;50.99
71770;BME280;66386;52.122;5.420;2023-05-27T08:36:47;102885.94;;;18.96;50.43
71770;BME280;66386;52.122;5.420;2023-05-27T08:39:13;102874.44;;;19.22;48.79
71770;BME280;66386;52.122;5.420;2023-05-27T08:41:40;102874.66;;;19.38;49.12
71770;BME280;66386;52.122;5.420;2023-05-27T08:44:06;102872.31;;;19.52;48.48
71770;BME280;66386;52.122;5.420;2023-05-27T08:46:36;102869.19;;;19.85;47.49
71770;BME280;66386;52.122;5.420;2023-05-27T08:49:03;102863.66;;;19.93;47.41
71770;BME280;66386;52.122;5.420;2023-05-27T08:51:30;102862.59;;;20.16;47.75
71770;BME280;66386;52.122;5.420;2023-05-27T08:53:57;102856.81;;;20.48;46.24
71770;BME280;66386;52.122;5.420;2023-05-27T08:56:25;102858.47;;;20.50;45.54
71770;BME280;66386;52.122;5.420;2023-05-27T08:58:53;102846.09;;;20.35;45.07
71770;BME280;66386;52.122;5.420;2023-05-27T09:01:21;102850.34;;;20.37;46.20
71770;BME280;66386;52.122;5.420;2023-05-27T09:03:48;102847.84;;;20.53;44.64
71770;BME280;66386;52.122;5.420;2023-05-27T09:06:15;102844.81;;;20.63;46.18
71770;BME280;66386;52.122;5.420;2023-05-27T09:08:42;102828.63;;;21.10;45.05
71770;BME280;66386;52.122;5.420;2023-05-27T09:11:24;102824.81;;;20.98;43.52
71770;BME280;66386;52.122;5.420;2023-05-27T09:13:55;102832.38;;;21.22;44.54
71770;BME280;66386;52.122;5.420;2023-05-27T09:16:23;102834.84;;;21.25;43.74
71770;BME280;66386;52.122;5.420;2023-05-27T09:18:49;102825.06;;;21.11;43.63
71770;BME280;66386;52.122;5.420;2023-05-27T09:21:16;102827.06;;;21.23;43.53
71770;BME280;66386;52.122;5.420;2023-05-27T09:23:43;102823.50;;;21.42;42.90
71770;BME280;66386;52.122;5.420;2023-05-27T09:26:12;102820.13;;;21.57;42.77
71770;BME280;66386;52.122;5.420;2023-05-27T09:28:39;102818.69;;;21.52;42.08
71770;BME280;66386;52.122;5.420;2023-05-27T09:31:08;102813.44;;;21.52;43.04
71770;BME280;66386;52.122;5.420;2023-05-27T09:33:38;102813.03;;;21.59;41.65
71770;BME280;66386;52.122;5.420;2023-05-27T09:36:06;102813.53;;;21.15;42.21
71770;BME280;66386;52.122;5.420;2023-05-27T09:38:34;102814.22;;;21.19;43.63
71770;BME280;66386;52.122;5.420;2023-05-27T09:41:01;102801.06;;;21.55;41.93
71770;BME280;66386;52.122;5.420;2023-05-27T09:43:29;102796.16;;;21.65;43.06
71770;BME280;66386;52.122;5.420;2023-05-27T09:45:59;102805.81;;;21.65;41.92
71770;BME280;66386;52.122;5.420;2023-05-27T09:48:31;102807.53;;;21.82;41.06
71770;BME280;66386;52.122;5.420;2023-05-27T09:50:59;102798.00;;;21.96;42.04
71770;BME280;66386;52.122;5.420;2023-05-27T09:53:27;102796.22;;;22.13;43.65
71770;BME280;66386;52.122;5.420;2023-05-27T09:55:54;102793.91;;;22.40;40.73
71770;BME280;66386;52.122;5.420;2023-05-27T09:58:22;102797.81;;;21.84;41.06
71770;BME280;66386;52.122;5.420;2023-05-27T10:00:49;102796.59;;;21.57;41.66
71770;BME280;66386;52.122;5.420;2023-05-27T10:03:17;102787.03;;;21.56;42.12
71770;BME280;66386;52.122;5.420;2023-05-27T10:05:48;102787.75;;;21.76;40.81
71770;BME280;66386;52.122;5.420;2023-05-27T10:08:15;102783.59;;;21.56;41.48
71770;BME280;66386;52.122;5.420;2023-05-27T10:10:51;102779.09;;;21.58;41.22
71770;BME280;66386;52.122;5.420;2023-05-27T10:13:24;102774.56;;;21.44;41.18
71770;BME280;66386;52.122;5.420;2023-05-27T10:15:52;102778.72;;;21.66;41.36
71770;BME280;66386;52.122;5.420;2023-05-27T10:18:23;102774.34;;;21.49;41.09
71770;BME280;66386;52.122;5.420;2023-05-27T10:20:50;102772.50;;;21.51;41.05
71770;BME280;66386;52.122;5.420;2023-05-27T10:23:28;102764.44;;;21.38;41.97
71770;BME280;66386;52.122;5.420;2023-05-27T10:25:57;102762.75;;;21.37;40.35
71770;BME280;66386;52.122;5.420;2023-05-27T10:28:37;102761.25;;;21.49;40.93
71770;BME280;66386;52.122;5.420;2023-05-27T10:31:14;102759.91;;;21.75;39.91
71770;BME280;66386;52.122;5.420;2023-05-27T10:33:47;102755.72;;;21.55;40.84
71770;BME280;66386;52.122;5.420;2023-05-27T10:36:14;102750.50;;;21.71;40.92
71770;BME280;66386;52.122;5.420;2023-05-27T10:38:42;102744.78;;;21.96;40.30
71770;BME280;66386;52.122;5.420;2023-05-27T10:41:09;102745.47;;;22.16;39.10
71770;BME280;66386;52.122;5.420;2023-05-27T10:43:36;102741.50;;;22.24;39.06
71770;BME280;66386;52.122;5.420;2023-05-27T10:46:12;102736.75;;;22.15;39.17
71770;BME280;66386;52.122;5.420;2023-05-27T10:48:39;102743.25;;;22.24;38.93
71770;BME280;66386;52.122;5.420;2023-05-27T10:51:07;102733.44;;;22.27;39.28
71770;BME280;66386;52.122;5.420;2023-05-27T10:53:35;102733.03;;;22.19;38.81
71770;BME280;66386;52.122;5.420;2023-05-27T10:56:02;102733.28;;;22.14;38.77
71770;BME280;66386;52.122;5.420;2023-05-27T10:58:29;102721.28;;;22.42;38.38
71770;BME280;66386;52.122;5.420;2023-05-27T11:00:55;102720.69;;;22.67;37.41
71770;BME280;66386;52.122;5.420;2023-05-27T11:03:25;102724.66;;;22.75;37.39
71770;BME280;66386;52.122;5.420;2023-05-27T11:06:00;102716.50;;;22.65;38.67
71770;BME280;66386;52.122;5.420;2023-05-27T11:08:29;102716.53;;;22.79;36.84
71770;BME280;66386;52.122;5.420;2023-05-27T11:13:30;102706.13;;;22.92;36.87
71770;BME280;66386;52.122;5.420;2023-05-27T11:15:57;102696.59;;;22.91;36.04
71770;BME280;66386;52.122;5.420;2023-05-27T11:18:23;102704.44;;;22.77;36.41
71770;BME280;66386;52.122;5.420;2023-05-27T11:20:50;102689.38;;;22.80;36.86
71770;BME280;66386;52.122;5.420;2023-05-27T11:23:17;102684.50;;;22.89;38.18
71770;BME280;66386;52.122;5.420;2023-05-27T11:25:44;102682.53;;;22.92;35.29
71770;BME280;66386;52.122;5.420;2023-05-27T11:28:14;102670.06;;;22.67;36.47
71770;BME280;66386;52.122;5.420;2023-05-27T11:30:42;102680.00;;;22.91;37.05
71770;BME280;66386;52.122;5.420;2023-05-27T11:33:10;102672.25;;;22.89;38.94
71770;BME280;66386;52.122;5.420;2023-05-27T11:36:06;102665.22;;;23.04;37.31
71770;BME280;66386;52.122;5.420;2023-05-27T11:41:17;102663.38;;;23.21;35.81
71770;BME280;66386;52.122;5.420;2023-05-27T11:43:54;102656.53;;;23.18;35.86
71770;BME280;66386;52.122;5.420;2023-05-27T11:46:21;102645.00;;;23.35;37.03
71770;BME280;66386;52.122;5.420;2023-05-27T11:48:48;102650.78;;;23.40;34.73
71770;BME280;66386;52.122;5.420;2023-05-27T11:51:14;102646.25;;;23.15;35.43
71770;BME280;66386;52.122;5.420;2023-05-27T11:53:45;102635.97;;;23.39;36.47
71770;BME280;66386;52.122;5.420;2023-05-27T11:56:12;102638.22;;;23.60;34.91
71770;BME280;66386;52.122;5.420;2023-05-27T11:58:39;102638.94;;;23.62;35.68
71770;BME280;66386;52.122;5.420;2023-05-27T12:01:06;102632.66;;;23.64;34.82
71770;BME280;66386;52.122;5.420;2023-05-27T12:03:33;102620.47;;;23.63;33.78
71770;BME280;66386;52.122;5.420;2023-05-27T12:06:01;102616.88;;;23.79;34.12
71770;BME280;66386;52.122;5.420;2023-05-27T12:08:28;102612.94;;;23.86;34.11
71770;BME280;66386;52.122;5.420;2023-05-27T12:10:54;102614.66;;;23.85;34.99
71770;BME280;66386;52.122;5.420;2023-05-27T12:13:21;102612.97;;;23.84;35.29
71770;BME280;66386;52.122;5.420;2023-05-27T12:15:48;102614.66;;;23.85;33.34
71770;BME280;66386;52.122;5.420;2023-05-27T12:18:15;102607.59;;;23.87;33.05
71770;BME280;66386;52.122;5.420;2023-05-27T12:20:43;102604.66;;;23.92;35.84
71770;BME280;66386;52.122;5.420;2023-05-27T12:23:11;102596.28;;;23.85;34.72
71770;BME280;66386;52.122;5.420;2023-05-27T12:25:37;102601.28;;;23.76;32.61
71770;BME280;66386;52.122;5.420;2023-05-27T12:28:07;102592.38;;;23.78;31.69
71770;BME280;66386;52.122;5.420;2023-05-27T12:30:35;102585.94;;;23.69;32.10
71770;BME280;66386;52.122;5.420;2023-05-27T12:33:03;102588.66;;;23.68;32.67
71770;BME280;66386;52.122;5.420;2023-05-27T12:35:30;102589.31;;;23.72;33.14
71770;BME280;66386;52.122;5.420;2023-05-27T12:37:57;102577.75;;;23.74;33.47
71770;BME280;66386;52.122;5.420;2023-05-27T12:40:27;102576.63;;;23.78;33.54
71770;BME280;66386;52.122;5.420;2023-05-27T12:42:53;102567.97;;;23.63;34.08
71770;BME280;66386;52.122;5.420;2023-05-27T12:45:20;102577.75;;;23.61;33.07
71770;BME280;66386;52.122;5.420;2023-05-27T12:47:49;102563.69;;;23.48;32.74
71770;BME280;66386;52.122;5.420;2023-05-27T12:50:16;102563.66;;;23.62;34.35
71770;BME280;66386;52.122;5.420;2023-05-27T12:52:43;102565.25;;;23.65;34.20
71770;BME280;66386;52.122;5.420;2023-05-27T12:55:17;102559.16;;;23.64;32.80
71770;BME280;66386;52.122;5.420;2023-05-27T12:57:45;102557.69;;;23.60;32.77
71770;BME280;66386;52.122;5.420;2023-05-27T13:00:12;102550.47;;;23.49;33.42
71770;BME280;66386;52.122;5.420;2023-05-27T13:02:39;102560.41;;;23.59;33.54
71770;BME280;66386;52.122;5.420;2023-05-27T13:05:06;102555.78;;;23.62;33.54
71770;BME280;66386;52.122;5.420;2023-05-27T13:07:33;102546.34;;;23.60;33.32